createdAt,value
2023-03-08T00:00:40.627Z,2.37
2023-03-08T00:03:25.738Z,2.36
2023-03-08T00:06:13.779Z,2.35
2023-03-08T00:09:01.147Z,2.39
2023-03-08T00:11:45.914Z,2.40
2023-03-08T00:14:30.930Z,2.43
2023-03-08T00:17:17.057Z,2.44
2023-03-08T00:20:01.906Z,2.44
2023-03-08T00:22:46.905Z,2.46
2023-03-08T00:25:32.028Z,2.45
2023-03-08T00:28:17.080Z,2.45
2023-03-08T00:31:05.646Z,2.48
2023-03-08T00:33:54.740Z,2.49
2023-03-08T00:36:39.338Z,2.51
2023-03-08T00:39:24.780Z,2.51
2023-03-08T00:42:09.445Z,2.48
2023-03-08T00:44:54.460Z,2.49
2023-03-08T00:47:39.457Z,2.46
2023-03-08T00:50:24.351Z,2.46
2023-03-08T00:53:09.610Z,2.43
2023-03-08T00:55:59.620Z,2.46
2023-03-08T00:58:47.304Z,2.43
2023-03-08T01:01:33.172Z,2.43
2023-03-08T01:04:18.323Z,2.44
2023-03-08T01:07:03.344Z,2.45
2023-03-08T01:09:48.464Z,2.45
2023-03-08T01:12:35.945Z,2.45
2023-03-08T01:15:20.757Z,2.44
2023-03-08T01:18:05.672Z,2.44
2023-03-08T01:20:57.467Z,2.46
2023-03-08T01:23:42.695Z,2.45
2023-03-08T01:26:27.848Z,2.47
2023-03-08T01:29:13.399Z,2.46
2023-03-08T01:31:58.007Z,2.47
2023-03-08T01:34:42.724Z,2.49
2023-03-08T01:37:27.399Z,2.49
2023-03-08T01:40:16.119Z,2.48
2023-03-08T01:43:21.049Z,2.49
2023-03-08T01:46:24.873Z,2.47
2023-03-08T01:49:32.838Z,2.48
2023-03-08T01:52:29.264Z,2.47
2023-03-08T01:55:16.685Z,2.46
2023-03-08T01:58:01.971Z,2.48
2023-03-08T02:00:47.253Z,2.48
2023-03-08T02:03:32.705Z,2.49
2023-03-08T02:06:19.795Z,2.49
2023-03-08T02:09:05.143Z,2.47
2023-03-08T02:11:51.121Z,2.49
2023-03-08T02:14:36.574Z,2.51
2023-03-08T02:17:22.078Z,2.52
2023-03-08T02:20:24.707Z,2.52
2023-03-08T02:23:17.354Z,2.53
2023-03-08T02:26:05.405Z,2.52
2023-03-08T02:28:50.038Z,2.53
2023-03-08T02:31:34.925Z,2.52
2023-03-08T02:34:19.685Z,2.53
2023-03-08T02:37:04.799Z,2.55
2023-03-08T02:39:49.729Z,2.55
2023-03-08T02:42:34.814Z,2.53
2023-03-08T02:45:19.715Z,2.56
2023-03-08T02:48:06.677Z,2.56
2023-03-08T02:50:51.489Z,2.57
2023-03-08T02:53:36.425Z,2.52
2023-03-08T02:56:21.533Z,2.49
2023-03-08T02:59:06.256Z,2.48
2023-03-08T03:03:10.337Z,2.44
2023-03-08T03:05:55.085Z,2.38
2023-03-08T03:08:46.483Z,2.41
2023-03-08T03:11:31.751Z,2.39
2023-03-08T03:14:17.374Z,2.39
2023-03-08T03:17:03.214Z,2.42
2023-03-08T03:19:48.224Z,2.43
2023-03-08T03:22:33.424Z,2.47
2023-03-08T03:25:18.229Z,2.46
2023-03-08T03:28:04.774Z,2.45
2023-03-08T03:30:50.537Z,2.44
2023-03-08T03:33:35.699Z,2.45
2023-03-08T03:36:21.640Z,2.45
2023-03-08T03:39:06.854Z,2.39
2023-03-08T03:41:54.239Z,2.38
2023-03-08T03:44:38.949Z,2.35
2023-03-08T03:47:25.476Z,2.32
2023-03-08T03:50:14.932Z,2.29
2023-03-08T03:53:13.550Z,2.24
2023-03-08T03:56:05.923Z,2.15
2023-03-08T03:58:52.144Z,2.04
2023-03-08T04:01:39.221Z,1.92
2023-03-08T04:04:33.247Z,1.90
2023-03-08T04:07:18.439Z,1.91
2023-03-08T04:10:11.408Z,1.94
2023-03-08T04:12:56.202Z,1.99
2023-03-08T04:15:41.379Z,2.02
2023-03-08T04:18:29.214Z,2.05
2023-03-08T04:21:14.897Z,2.08
2023-03-08T04:24:00.832Z,2.11
2023-03-08T04:26:47.192Z,2.15
2023-03-08T04:29:36.365Z,2.18
2023-03-08T04:32:21.370Z,2.23
2023-03-08T04:35:10.762Z,2.28
2023-03-08T04:37:58.042Z,2.29
2023-03-08T04:41:01.310Z,2.31
2023-03-08T04:43:56.263Z,2.34
2023-03-08T04:46:48.681Z,2.37
2023-03-08T04:49:39.970Z,2.38
2023-03-08T04:52:25.355Z,2.37
2023-03-08T04:55:10.738Z,2.36
2023-03-08T04:57:56.738Z,2.33
2023-03-08T05:00:43.250Z,2.30
2023-03-08T05:03:28.022Z,2.30
2023-03-08T05:06:16.420Z,2.33
2023-03-08T05:09:01.726Z,2.33
2023-03-08T05:11:47.362Z,2.31
2023-03-08T05:14:33.508Z,2.30
2023-03-08T05:17:18.395Z,2.34
2023-03-08T05:20:03.839Z,2.41
2023-03-08T05:22:58.970Z,2.45
2023-03-08T05:25:54.694Z,2.55
2023-03-08T05:28:41.365Z,2.59
2023-03-08T05:31:26.772Z,2.62
2023-03-08T05:34:13.283Z,2.65
2023-03-08T05:37:02.418Z,2.68
2023-03-08T05:39:50.025Z,2.71
2023-03-08T05:42:38.829Z,2.78
2023-03-08T05:45:23.715Z,2.79
2023-03-08T05:48:09.183Z,2.88
2023-03-08T05:50:54.911Z,2.94
2023-03-08T05:53:40.821Z,2.94
2023-03-08T05:56:26.933Z,2.93
2023-03-08T05:59:26.826Z,2.91
2023-03-08T06:02:16.080Z,2.93
2023-03-08T06:05:05.649Z,2.93
2023-03-08T06:07:50.734Z,2.99
2023-03-08T06:10:36.472Z,3.10
2023-03-08T06:13:21.693Z,3.21
2023-03-08T06:16:08.176Z,3.37
2023-03-08T06:18:57.161Z,3.50
2023-03-08T06:21:45.047Z,3.77
2023-03-08T06:25:14.634Z,3.87
2023-03-08T06:32:06.301Z,3.92
2023-03-08T06:35:39.297Z,4.43
2023-03-08T06:39:03.271Z,4.90
2023-03-08T06:41:58.342Z,5.19
2023-03-08T06:44:48.032Z,5.02
2023-03-08T06:47:36.883Z,5.00
2023-03-08T06:50:31.396Z,4.81
2023-03-08T06:56:35.581Z,4.71
2023-03-08T06:59:30.114Z,4.47
2023-03-08T07:02:33.085Z,4.55
2023-03-08T07:13:59.858Z,4.80
2023-03-08T07:17:23.162Z,4.64
2023-03-08T07:20:44.249Z,4.79
2023-03-08T07:23:58.324Z,4.74
2023-03-08T07:28:08.708Z,4.82
2023-03-08T07:31:13.274Z,4.88
2023-03-08T07:35:08.699Z,4.95
2023-03-08T07:45:48.978Z,5.11
2023-03-08T07:53:46.488Z,5.11
2023-03-08T08:03:03.197Z,5.23
2023-03-08T08:05:54.262Z,5.45
2023-03-08T08:09:13.034Z,5.57
2023-03-08T08:12:37.796Z,5.77
2023-03-08T08:15:45.361Z,5.87
2023-03-08T08:18:37.274Z,5.75
2023-03-08T08:26:28.596Z,6.02
2023-03-08T08:29:49.614Z,6.00
2023-03-08T08:40:08.826Z,5.65
2023-03-08T08:42:55.868Z,5.90
2023-03-08T08:46:32.620Z,5.91
2023-03-08T08:49:46.541Z,6.52
2023-03-08T08:53:05.641Z,6.57
2023-03-08T08:55:53.670Z,7.05
2023-03-08T08:59:48.511Z,8.06
2023-03-08T09:25:23.353Z,7.09
2023-03-08T09:28:17.687Z,7.25
2023-03-08T09:34:52.035Z,7.80
2023-03-08T09:38:09.943Z,7.80
2023-03-08T09:41:29.303Z,7.96
2023-03-08T09:52:37.845Z,8.28
2023-03-08T09:55:55.302Z,8.67
2023-03-08T09:59:17.495Z,9.05
2023-03-08T10:02:02.709Z,9.68
2023-03-08T10:05:12.694Z,9.25
2023-03-08T10:08:36.904Z,9.37
2023-03-08T10:11:46.376Z,9.72
2023-03-08T10:15:07.119Z,9.95
2023-03-08T10:25:51.679Z,9.52
2023-03-08T10:28:36.827Z,9.87
2023-03-08T10:31:59.324Z,9.99
2023-03-08T10:34:46.653Z,9.64
2023-03-08T10:37:36.239Z,10.13
2023-03-08T10:40:48.360Z,9.63
2023-03-08T10:47:58.886Z,7.93
2023-03-08T10:50:45.851Z,7.68
2023-03-08T10:53:32.080Z,8.03
2023-03-08T10:56:37.703Z,8.15
2023-03-08T10:59:47.439Z,7.88
2023-03-08T11:02:35.583Z,8.17
2023-03-08T11:05:28.306Z,9.11
2023-03-08T11:08:21.123Z,9.63
2023-03-08T11:11:08.024Z,10.52
2023-03-08T11:13:54.015Z,10.40
2023-03-08T11:17:05.498Z,10.37
2023-03-08T11:20:16.312Z,9.24
2023-03-08T11:23:26.237Z,8.89
2023-03-08T11:27:39.760Z,8.36
2023-03-08T11:30:39.132Z,8.02
2023-03-08T11:34:01.948Z,7.77
2023-03-08T11:37:09.025Z,7.57
2023-03-08T11:40:06.087Z,7.65
2023-03-08T11:43:24.728Z,7.87
2023-03-08T11:46:48.455Z,8.69
2023-03-08T11:49:48.110Z,8.12
2023-03-08T11:53:04.116Z,7.77
2023-03-08T11:56:02.972Z,7.75
2023-03-08T11:58:52.748Z,7.39
2023-03-08T12:02:03.276Z,7.24
2023-03-08T12:08:38.620Z,7.01
2023-03-08T12:11:36.431Z,7.26
2023-03-08T12:14:28.607Z,7.45
2023-03-08T12:17:34.388Z,7.49
2023-03-08T12:20:45.504Z,7.53
2023-03-08T12:23:39.816Z,7.53
2023-03-08T12:26:45.640Z,7.52
2023-03-08T12:29:49.127Z,7.48
2023-03-08T12:32:37.916Z,7.38
2023-03-08T12:35:22.952Z,7.34
2023-03-08T12:38:20.341Z,7.30
2023-03-08T12:41:25.795Z,7.58
2023-03-08T12:44:58.660Z,7.42
2023-03-08T12:47:55.631Z,7.28
2023-03-08T12:50:44.675Z,7.36
2023-03-08T12:53:40.171Z,7.28
2023-03-08T12:56:30.652Z,7.16
2023-03-08T12:59:15.348Z,7.13
2023-03-08T13:02:04.678Z,7.15
2023-03-08T13:05:00.692Z,7.11
2023-03-08T13:08:11.778Z,7.36
2023-03-08T13:11:04.358Z,7.32
2023-03-08T13:14:01.060Z,7.26
2023-03-08T13:16:49.292Z,7.16
2023-03-08T13:19:35.419Z,6.87
2023-03-08T13:22:28.129Z,6.86
2023-03-08T13:25:27.716Z,6.49
2023-03-08T13:28:21.269Z,6.10
2023-03-08T13:31:31.618Z,5.73
2023-03-08T13:34:30.762Z,5.59
2023-03-08T13:37:24.080Z,5.42
2023-03-08T13:40:18.513Z,5.36
2023-03-08T13:43:05.025Z,5.39
2023-03-08T13:45:58.189Z,5.42
2023-03-08T13:48:44.645Z,5.52
2023-03-08T13:51:29.815Z,5.58
2023-03-08T13:54:19.770Z,5.76
2023-03-08T13:57:16.796Z,5.99
2023-03-08T14:00:21.410Z,6.61
2023-03-08T14:03:06.948Z,6.48
2023-03-08T14:05:52.362Z,6.38
2023-03-08T14:08:37.377Z,6.60
2023-03-08T14:11:26.482Z,7.01
2023-03-08T14:14:19.770Z,6.66
2023-03-08T14:17:04.999Z,6.51
2023-03-08T14:20:21.393Z,6.67
2023-03-08T14:23:23.717Z,6.88
2023-03-08T14:26:28.278Z,7.17
2023-03-08T14:29:21.605Z,7.32
2023-03-08T14:32:30.794Z,7.54
2023-03-08T14:35:22.432Z,7.67
2023-03-08T14:38:23.419Z,7.59
2023-03-08T14:41:10.648Z,7.09
2023-03-08T14:43:56.063Z,7.00
2023-03-08T14:46:41.222Z,7.06
2023-03-08T14:49:28.985Z,6.96
2023-03-08T14:52:20.697Z,7.11
2023-03-08T14:55:22.566Z,6.95
2023-03-08T14:58:13.104Z,6.91
2023-03-08T15:01:01.074Z,6.81
2023-03-08T15:03:46.083Z,6.82
2023-03-08T15:06:35.745Z,6.75
2023-03-08T15:09:21.939Z,6.62
2023-03-08T15:12:08.891Z,6.46
2023-03-08T15:14:53.574Z,6.29
2023-03-08T15:17:38.579Z,6.19
2023-03-08T15:20:24.401Z,6.06
2023-03-08T15:23:15.575Z,5.96
2023-03-08T15:26:00.470Z,5.81
2023-03-08T15:28:45.377Z,5.63
2023-03-08T15:31:31.535Z,5.56
2023-03-08T15:34:16.247Z,5.46
2023-03-08T15:37:01.076Z,5.36
2023-03-08T15:39:46.078Z,5.30
2023-03-08T15:42:31.275Z,5.23
2023-03-08T15:45:16.500Z,5.19
2023-03-08T15:48:04.517Z,5.13
2023-03-08T15:50:49.635Z,4.95
2023-03-08T15:53:35.567Z,4.83
2023-03-08T15:56:22.157Z,4.67
2023-03-08T15:59:06.918Z,4.54
2023-03-08T16:01:51.994Z,4.32
2023-03-08T16:04:37.075Z,4.19
2023-03-08T16:07:22.249Z,4.10
2023-03-08T16:10:10.018Z,3.98
2023-03-08T16:12:54.989Z,3.82
2023-03-08T16:15:40.892Z,3.75
2023-03-08T16:18:27.573Z,3.58
2023-03-08T16:21:12.692Z,3.49
2023-03-08T16:23:58.939Z,3.35
2023-03-08T16:26:43.935Z,3.28
2023-03-08T16:29:28.940Z,3.23
2023-03-08T16:32:14.485Z,3.22
2023-03-08T16:35:00.416Z,3.09
2023-03-08T16:37:45.180Z,3.01
2023-03-08T16:40:30.657Z,2.93
2023-03-08T16:43:16.940Z,2.87
2023-03-08T16:46:02.098Z,2.77
2023-03-08T16:48:49.503Z,2.65
2023-03-08T16:51:36.612Z,2.62
2023-03-08T16:54:22.774Z,2.55
2023-03-08T16:57:18.751Z,2.49
2023-03-08T17:00:06.060Z,2.37
2023-03-08T17:02:51.075Z,2.24
2023-03-08T17:05:39.685Z,2.08
2023-03-08T17:08:24.697Z,1.92
2023-03-08T17:11:24.967Z,1.77
2023-03-08T17:14:11.477Z,1.69
2023-03-08T17:16:56.700Z,1.63
2023-03-08T17:19:41.456Z,1.55
2023-03-08T17:22:26.684Z,1.41
2023-03-08T17:25:11.069Z,1.30
2023-03-08T17:27:55.795Z,1.22
2023-03-08T17:30:42.200Z,1.15
2023-03-08T17:33:26.987Z,1.08
2023-03-08T17:36:13.448Z,0.97
2023-03-08T17:38:58.474Z,0.89
2023-03-08T17:41:44.236Z,0.78
2023-03-08T17:44:29.212Z,0.68
2023-03-08T17:47:13.614Z,0.57
2023-03-08T17:49:58.267Z,0.47
2023-03-08T17:52:43.341Z,0.43
2023-03-08T17:55:32.325Z,0.45
2023-03-08T17:58:19.245Z,0.55
2023-03-08T18:01:18.952Z,0.66
2023-03-08T18:04:04.493Z,0.66
2023-03-08T18:06:49.084Z,0.60
2023-03-08T18:09:34.220Z,0.55
2023-03-08T18:12:19.223Z,0.50
2023-03-08T18:15:04.197Z,0.43
2023-03-08T18:17:49.619Z,0.35
2023-03-08T18:20:34.632Z,0.33
2023-03-08T18:23:21.446Z,0.32
2023-03-08T18:26:06.474Z,0.32
2023-03-08T18:28:51.881Z,0.34
2023-03-08T18:31:36.627Z,0.34
2023-03-08T18:34:21.509Z,0.35
2023-03-08T18:37:06.494Z,0.37
2023-03-08T18:39:54.698Z,0.32
2023-03-08T18:42:40.317Z,0.30
2023-03-08T18:45:25.281Z,0.24
2023-03-08T18:48:10.016Z,0.22
2023-03-08T18:50:54.708Z,0.22
2023-03-08T18:53:39.724Z,0.22
2023-03-08T18:56:26.336Z,0.22
2023-03-08T18:59:13.469Z,0.22
2023-03-08T19:01:57.995Z,0.18
2023-03-08T19:04:43.032Z,0.14
2023-03-08T19:07:27.759Z,0.10
2023-03-08T19:10:14.173Z,-0.03
2023-03-08T19:12:58.679Z,-0.10
2023-03-08T19:15:43.846Z,-0.15
2023-03-08T19:18:28.755Z,-0.19
2023-03-08T19:21:16.624Z,-0.16
2023-03-08T19:24:01.965Z,-0.19
2023-03-08T19:26:49.541Z,-0.21
2023-03-08T19:29:34.568Z,-0.31
2023-03-08T19:32:19.530Z,-0.39
2023-03-08T19:35:04.213Z,-0.48
2023-03-08T19:37:49.747Z,-0.60
2023-03-08T19:40:34.776Z,-0.68
2023-03-08T19:43:19.807Z,-0.73
2023-03-08T19:46:05.153Z,-0.85
2023-03-08T19:48:50.058Z,-0.94
2023-03-08T19:51:35.716Z,-0.96
2023-03-08T19:54:22.558Z,-0.94
2023-03-08T19:57:08.651Z,-0.92
2023-03-08T19:59:54.084Z,-0.93
2023-03-08T20:02:42.070Z,-0.94
2023-03-08T20:05:27.184Z,-0.93
2023-03-08T20:08:13.354Z,-0.96
2023-03-08T20:10:58.189Z,-0.99
2023-03-08T20:13:42.956Z,-0.99
2023-03-08T20:16:28.219Z,-0.96
2023-03-08T20:19:13.387Z,-0.99
2023-03-08T20:21:58.175Z,-1.01
2023-03-08T20:24:43.283Z,-1.01
2023-03-08T20:27:29.189Z,-0.96
2023-03-08T20:30:14.784Z,-0.90
2023-03-08T20:32:59.712Z,-0.78
2023-03-08T20:35:47.229Z,-0.63
2023-03-08T20:38:32.683Z,-0.39
2023-03-08T20:41:18.367Z,-0.14
2023-03-08T20:44:03.182Z,0.12
2023-03-08T20:46:48.380Z,0.35
2023-03-08T20:49:33.234Z,0.54
2023-03-08T20:52:18.430Z,0.71
2023-03-08T20:55:03.843Z,0.90
2023-03-08T20:57:51.308Z,1.04
2023-03-08T21:00:36.793Z,1.19
2023-03-08T21:03:21.370Z,1.29
2023-03-08T21:06:14.635Z,1.39
2023-03-08T21:09:00.121Z,1.46
2023-03-08T21:11:45.113Z,1.50
2023-03-08T21:14:29.990Z,1.54
2023-03-08T21:17:15.189Z,1.57
2023-03-08T21:20:00.032Z,1.61
2023-03-08T21:22:44.687Z,1.62
2023-03-08T21:25:33.004Z,1.61
2023-03-08T21:28:20.319Z,1.61
2023-03-08T21:31:10.484Z,1.58
2023-03-08T21:33:55.708Z,1.51
2023-03-08T21:36:40.598Z,1.41
2023-03-08T21:39:26.261Z,1.21
2023-03-08T21:42:10.950Z,1.17
2023-03-08T21:44:55.623Z,1.17
2023-03-08T21:47:40.225Z,1.14
2023-03-08T21:50:26.508Z,1.24
2023-03-08T21:53:11.537Z,1.28
2023-03-08T21:55:56.667Z,1.37
2023-03-08T21:58:42.466Z,1.46
2023-03-08T22:01:29.253Z,1.58
2023-03-08T22:04:15.717Z,1.71
2023-03-08T22:07:00.570Z,1.78
2023-03-08T22:09:45.543Z,1.88
2023-03-08T22:12:30.439Z,1.94
2023-03-08T22:15:15.289Z,2.03
2023-03-08T22:18:00.473Z,2.12
2023-03-08T22:20:45.091Z,2.21
2023-03-08T22:23:31.470Z,2.27
2023-03-08T22:26:16.683Z,2.37
2023-03-08T22:29:01.319Z,2.41
2023-03-08T22:31:45.987Z,2.43
2023-03-08T22:34:30.670Z,2.45
2023-03-08T22:37:15.709Z,2.46
2023-03-08T22:40:00.293Z,2.49
2023-03-08T22:42:46.387Z,2.50
2023-03-08T22:45:31.414Z,2.54
2023-03-08T22:48:16.168Z,2.57
2023-03-08T22:51:10.425Z,2.59
2023-03-08T22:53:58.488Z,2.63
2023-03-08T22:56:44.214Z,2.67
2023-03-08T22:59:28.775Z,2.69
2023-03-08T23:02:14.408Z,2.74
2023-03-08T23:04:58.892Z,2.79
2023-03-08T23:07:44.062Z,2.85
2023-03-08T23:10:28.896Z,2.87
2023-03-08T23:13:21.613Z,2.94
2023-03-08T23:16:16.977Z,2.95
2023-03-08T23:19:02.628Z,2.99
2023-03-08T23:21:47.885Z,2.98
2023-03-08T23:24:32.745Z,3.00
2023-03-08T23:27:17.406Z,3.04
2023-03-08T23:30:01.997Z,3.03
2023-03-08T23:32:47.184Z,3.05
2023-03-08T23:35:32.169Z,3.07
2023-03-08T23:38:17.010Z,3.07
2023-03-08T23:41:08.316Z,3.09
2023-03-08T23:43:54.377Z,3.09
2023-03-08T23:46:39.568Z,3.04
2023-03-08T23:49:24.596Z,3.01
2023-03-08T23:52:09.627Z,2.94
2023-03-08T23:54:54.523Z,2.84
2023-03-08T23:57:39.766Z,2.82
